createdAt,value
2019-03-25T00:02:13.580Z,99.90
2019-03-25T00:04:46.282Z,99.90
2019-03-25T00:07:18.752Z,99.90
2019-03-25T00:09:51.314Z,99.90
2019-03-25T00:12:24.100Z,99.90
2019-03-25T00:14:56.645Z,99.90
2019-03-25T00:17:29.008Z,99.90
2019-03-25T00:20:01.636Z,99.90
2019-03-25T00:22:34.399Z,99.90
2019-03-25T00:25:07.745Z,99.90
2019-03-25T00:27:40.389Z,99.90
2019-03-25T00:30:19.232Z,99.90
2019-03-25T00:32:52.014Z,99.90
2019-03-25T00:35:33.474Z,99.90
2019-03-25T00:38:06.194Z,99.90
2019-03-25T00:40:38.783Z,99.90
2019-03-25T00:43:11.378Z,99.90
2019-03-25T00:45:47.068Z,99.90
2019-03-25T00:48:19.508Z,99.90
2019-03-25T00:51:09.396Z,99.90
2019-03-25T00:53:41.997Z,99.90
2019-03-25T00:56:20.665Z,99.90
2019-03-25T00:58:53.358Z,99.90
2019-03-25T01:01:26.232Z,99.90
2019-03-25T01:03:58.866Z,99.90
2019-03-25T01:06:31.362Z,99.90
2019-03-25T01:09:08.855Z,99.90
2019-03-25T01:11:49.013Z,99.90
2019-03-25T01:14:16.419Z,99.90
2019-03-25T01:16:48.825Z,99.90
2019-03-25T01:19:21.467Z,99.90
2019-03-25T01:21:57.928Z,99.90
2019-03-25T01:24:30.781Z,99.90
2019-03-25T01:27:09.321Z,99.90
2019-03-25T01:29:41.922Z,99.90
2019-03-25T01:32:25.032Z,99.90
2019-03-25T01:34:57.907Z,99.90
2019-03-25T01:37:33.309Z,99.90
2019-03-25T01:40:06.253Z,99.90
2019-03-25T01:42:54.028Z,99.90
2019-03-25T01:45:26.655Z,99.90
2019-03-25T01:48:00.389Z,99.90
2019-03-25T01:50:32.840Z,99.90
2019-03-25T01:53:05.792Z,99.90
2019-03-25T01:55:38.434Z,99.90
2019-03-25T01:58:18.428Z,99.90
2019-03-25T02:00:50.875Z,99.90
2019-03-25T02:03:29.182Z,99.90
2019-03-25T02:06:01.685Z,99.90
2019-03-25T02:08:37.220Z,99.90
2019-03-25T02:11:09.693Z,99.90
2019-03-25T02:13:44.932Z,99.90
2019-03-25T02:16:17.530Z,99.90
2019-03-25T02:18:56.243Z,99.90
2019-03-25T02:21:28.613Z,99.90
2019-03-25T02:24:05.410Z,99.90
2019-03-25T02:26:37.855Z,99.90
2019-03-25T02:29:14.292Z,99.90
2019-03-25T02:31:46.941Z,99.90
2019-03-25T02:34:37.836Z,99.90
2019-03-25T02:37:10.331Z,99.90
2019-03-25T02:39:42.542Z,99.90
2019-03-25T02:42:15.330Z,99.90
2019-03-25T02:44:53.977Z,99.90
2019-03-25T02:47:26.497Z,99.90
2019-03-25T02:50:02.341Z,99.90
2019-03-25T02:52:34.937Z,99.90
2019-03-25T02:55:10.577Z,99.90
2019-03-25T02:57:44.168Z,99.90
2019-03-25T03:00:34.896Z,99.90
2019-03-25T03:03:09.121Z,99.90
2019-03-25T03:05:41.584Z,99.90
2019-03-25T03:08:14.074Z,99.90
2019-03-25T03:10:46.674Z,99.90
2019-03-25T03:13:19.341Z,99.90
2019-03-25T03:15:55.151Z,99.90
2019-03-25T03:18:27.829Z,99.90
2019-03-25T03:21:00.382Z,99.90
2019-03-25T03:23:32.988Z,99.90
2019-03-25T03:26:08.621Z,99.90
2019-03-25T03:28:41.069Z,99.90
2019-03-25T03:31:20.596Z,99.90
2019-03-25T03:33:53.173Z,99.90
2019-03-25T03:36:36.467Z,99.90
2019-03-25T03:39:09.787Z,99.90
2019-03-25T03:41:42.131Z,99.90
2019-03-25T03:44:14.486Z,99.90
2019-03-25T03:46:57.811Z,99.90
2019-03-25T03:49:30.395Z,99.90
2019-03-25T03:52:02.828Z,99.90
2019-03-25T03:54:35.775Z,99.90
2019-03-25T03:57:19.629Z,99.90
2019-03-25T03:59:52.671Z,99.90
2019-03-25T04:02:25.313Z,99.90
2019-03-25T04:04:57.913Z,99.90
2019-03-25T04:07:33.577Z,99.90
2019-03-25T04:10:06.392Z,99.90
2019-03-25T04:12:49.759Z,99.90
2019-03-25T04:15:30.717Z,99.90
2019-03-25T04:18:03.822Z,99.90
2019-03-25T04:20:36.288Z,99.90
2019-03-25T04:23:08.781Z,99.90
2019-03-25T04:25:41.165Z,99.90
2019-03-25T04:28:13.649Z,99.90
2019-03-25T04:30:46.170Z,99.90
2019-03-25T04:33:28.289Z,99.90
2019-03-25T04:36:00.958Z,99.90
2019-03-25T04:38:40.967Z,99.90
2019-03-25T04:41:13.658Z,99.90
2019-03-25T04:43:46.164Z,99.90
2019-03-25T04:46:18.487Z,99.90
2019-03-25T04:48:54.535Z,99.90
2019-03-25T04:51:27.059Z,99.90
2019-03-25T04:54:08.502Z,99.90
2019-03-25T04:56:41.117Z,99.90
2019-03-25T04:59:17.663Z,99.90
2019-03-25T05:01:50.074Z,99.90
2019-03-25T05:04:25.400Z,99.90
2019-03-25T05:06:57.963Z,99.90
2019-03-25T05:09:42.550Z,99.90
2019-03-25T05:12:15.030Z,99.90
2019-03-25T05:14:47.603Z,99.90
2019-03-25T05:17:20.309Z,99.90
2019-03-25T05:20:03.379Z,99.90
2019-03-25T05:22:35.983Z,99.90
2019-03-25T05:25:11.896Z,99.90
2019-03-25T05:27:44.500Z,99.90
2019-03-25T05:30:24.328Z,99.90
2019-03-25T05:32:56.963Z,99.90
2019-03-25T05:35:29.505Z,99.90
2019-03-25T05:38:02.129Z,99.90
2019-03-25T05:40:37.883Z,99.90
2019-03-25T05:43:10.483Z,99.90
2019-03-25T05:45:49.159Z,99.90
2019-03-25T05:48:25.821Z,99.90
2019-03-25T05:51:06.193Z,99.90
2019-03-25T05:53:38.937Z,99.90
2019-03-25T05:56:14.827Z,99.90
2019-03-25T05:58:47.600Z,99.90
2019-03-25T06:01:20.524Z,99.90
2019-03-25T06:03:58.979Z,99.90
2019-03-25T06:06:31.660Z,99.90
2019-03-25T06:09:04.845Z,99.90
2019-03-25T06:11:45.424Z,99.90
2019-03-25T06:14:18.135Z,99.90
2019-03-25T06:16:57.182Z,99.90
2019-03-25T06:19:29.690Z,99.90
2019-03-25T06:22:02.345Z,99.90
2019-03-25T06:24:35.938Z,99.90
2019-03-25T06:27:14.480Z,99.90
2019-03-25T06:29:46.657Z,99.90
2019-03-25T06:32:22.259Z,99.90
2019-03-25T06:34:54.829Z,99.90
2019-03-25T06:37:30.215Z,99.90
2019-03-25T06:40:03.085Z,99.90
2019-03-25T06:42:41.610Z,99.90
2019-03-25T06:45:14.898Z,99.90
2019-03-25T06:47:56.851Z,99.90
2019-03-25T06:50:29.567Z,99.90
2019-03-25T06:53:06.371Z,99.90
2019-03-25T06:55:39.094Z,99.90
2019-03-25T06:58:14.672Z,99.90
2019-03-25T07:00:47.758Z,99.90
2019-03-25T07:03:29.906Z,99.90
2019-03-25T07:06:02.483Z,99.90
2019-03-25T07:08:41.057Z,99.90
2019-03-25T07:11:13.969Z,99.90
2019-03-25T07:13:49.438Z,99.90
2019-03-25T07:16:21.850Z,99.90
2019-03-25T07:19:00.412Z,99.90
2019-03-25T07:21:32.938Z,99.90
2019-03-25T07:24:11.394Z,99.90
2019-03-25T07:26:44.044Z,99.90
2019-03-25T07:29:19.477Z,99.90
2019-03-25T07:31:54.924Z,99.90
2019-03-25T07:34:27.508Z,99.90
2019-03-25T07:37:00.071Z,99.90
2019-03-25T07:39:41.836Z,99.90
2019-03-25T07:42:14.447Z,99.90
2019-03-25T07:44:54.136Z,99.90
2019-03-25T07:47:26.990Z,99.90
2019-03-25T07:49:59.691Z,99.90
2019-03-25T07:52:33.361Z,99.90
2019-03-25T07:55:10.696Z,99.90
2019-03-25T07:57:48.218Z,99.90
2019-03-25T08:00:24.900Z,99.90
2019-03-25T08:02:57.822Z,99.90
2019-03-25T08:05:30.339Z,99.90
2019-03-25T08:08:02.801Z,99.90
2019-03-25T08:10:39.060Z,99.90
2019-03-25T08:13:11.831Z,99.90
2019-03-25T08:15:54.882Z,99.90
2019-03-25T08:18:27.621Z,99.90
2019-03-25T08:21:00.186Z,99.90
2019-03-25T08:23:32.971Z,99.90
2019-03-25T08:26:16.292Z,99.90
2019-03-25T08:28:48.991Z,99.90
2019-03-25T08:31:23.000Z,99.90
2019-03-25T08:33:55.891Z,99.90
2019-03-25T08:36:31.493Z,99.90
2019-03-25T08:39:04.663Z,98.70
2019-03-25T08:41:49.512Z,98.10
2019-03-25T08:44:21.977Z,96.20
2019-03-25T08:46:54.605Z,95.00
2019-03-25T08:49:28.835Z,94.80
2019-03-25T08:52:10.393Z,94.90
2019-03-25T08:54:43.219Z,96.10
2019-03-25T08:57:15.729Z,95.10
2019-03-25T08:59:48.766Z,94.70
2019-03-25T09:02:21.706Z,94.10
2019-03-25T09:04:55.075Z,93.80
2019-03-25T09:07:27.671Z,93.40
2019-03-25T09:10:01.173Z,92.10
2019-03-25T09:12:33.878Z,92.90
2019-03-25T09:15:07.388Z,90.90
2019-03-25T09:17:44.572Z,90.00
2019-03-25T09:20:17.751Z,88.20
2019-03-25T09:22:50.973Z,88.40
2019-03-25T09:25:23.836Z,86.60
2019-03-25T09:27:56.467Z,84.60
2019-03-25T09:31:22.196Z,86.10
2019-03-25T09:33:55.518Z,86.20
2019-03-25T09:36:28.449Z,85.60
2019-03-25T09:39:01.066Z,82.00
2019-03-25T09:41:33.584Z,79.80
2019-03-25T09:44:07.025Z,76.50
2019-03-25T09:46:44.414Z,73.80
2019-03-25T09:49:16.917Z,74.60
2019-03-25T09:51:49.633Z,68.70
2019-03-25T09:54:23.437Z,66.40
2019-03-25T09:56:56.906Z,62.80
2019-03-25T09:59:31.272Z,62.00
2019-03-25T10:02:03.931Z,58.80
2019-03-25T10:04:36.394Z,60.40
2019-03-25T10:07:08.738Z,60.90
2019-03-25T10:09:41.845Z,61.20
2019-03-25T10:12:15.867Z,60.00
2019-03-25T10:14:48.400Z,60.90
2019-03-25T10:17:21.046Z,59.80
2019-03-25T10:19:55.486Z,59.40
2019-03-25T10:22:30.539Z,57.00
2019-03-25T10:25:03.817Z,58.80
2019-03-25T10:27:37.062Z,57.90
2019-03-25T10:30:12.291Z,57.30
2019-03-25T10:32:44.879Z,55.40
2019-03-25T10:35:25.363Z,55.80
2019-03-25T10:37:58.259Z,54.70
2019-03-25T10:40:30.813Z,53.70
2019-03-25T10:43:03.572Z,53.30
2019-03-25T10:45:36.538Z,51.90
2019-03-25T10:48:09.875Z,49.10
2019-03-25T10:50:43.022Z,48.20
2019-03-25T10:53:16.762Z,46.90
2019-03-25T10:55:49.682Z,47.10
2019-03-25T10:58:22.423Z,49.90
2019-03-25T11:00:55.788Z,50.40
2019-03-25T11:03:29.453Z,52.10
2019-03-25T11:06:02.995Z,49.10
2019-03-25T11:08:35.669Z,51.10
2019-03-25T11:11:08.277Z,53.00
2019-03-25T11:13:40.993Z,52.90
2019-03-25T11:16:15.479Z,52.40
2019-03-25T11:18:48.075Z,52.60
2019-03-25T11:21:27.442Z,53.80
2019-03-25T11:24:00.733Z,52.00
2019-03-25T11:26:34.003Z,50.40
2019-03-25T11:29:08.664Z,50.80
2019-03-25T11:31:41.301Z,50.20
2019-03-25T11:34:14.005Z,50.10
2019-03-25T11:36:46.463Z,50.90
2019-03-25T11:39:19.599Z,49.90
2019-03-25T11:41:52.928Z,49.90
2019-03-25T11:44:25.634Z,50.30
2019-03-25T11:46:58.082Z,49.90
2019-03-25T11:49:34.021Z,50.40
2019-03-25T11:52:11.170Z,50.40
2019-03-25T11:54:44.384Z,50.20
2019-03-25T11:57:17.004Z,51.00
2019-03-25T11:59:50.265Z,52.00
2019-03-25T12:02:23.073Z,50.20
2019-03-25T12:05:15.389Z,50.00
2019-03-25T12:07:48.190Z,51.00
2019-03-25T12:10:20.959Z,49.50
2019-03-25T12:12:56.782Z,50.30
2019-03-25T12:15:29.351Z,52.60
2019-03-25T12:18:02.142Z,56.10
2019-03-25T12:20:42.247Z,54.40
2019-03-25T12:23:25.777Z,53.30
2019-03-25T12:25:50.915Z,52.80
2019-03-25T12:28:23.609Z,52.30
2019-03-25T12:30:56.290Z,51.50
2019-03-25T12:33:29.118Z,51.10
2019-03-25T12:36:03.033Z,52.60
2019-03-25T12:38:36.481Z,51.60
2019-03-25T12:41:10.281Z,50.20
2019-03-25T12:43:43.503Z,53.70
2019-03-25T12:46:17.595Z,51.70
2019-03-25T12:48:51.864Z,50.40
2019-03-25T12:51:24.286Z,51.60
2019-03-25T12:53:57.080Z,51.60
2019-03-25T12:56:30.015Z,50.30
2019-03-25T12:59:02.647Z,49.10
2019-03-25T13:01:35.988Z,50.40
2019-03-25T13:04:09.730Z,50.80
2019-03-25T13:06:43.344Z,49.50
2019-03-25T13:09:16.172Z,49.70
2019-03-25T13:11:49.767Z,49.80
2019-03-25T13:14:22.670Z,49.50
2019-03-25T13:16:56.157Z,49.70
2019-03-25T13:19:29.883Z,50.10
2019-03-25T13:22:02.460Z,49.70
2019-03-25T13:24:35.460Z,49.90
2019-03-25T13:27:16.135Z,49.80
2019-03-25T13:29:52.701Z,53.10
2019-03-25T13:32:23.349Z,52.10
2019-03-25T13:34:57.320Z,56.00
2019-03-25T13:37:30.386Z,56.20
2019-03-25T13:40:04.863Z,57.20
2019-03-25T13:42:37.441Z,56.40
2019-03-25T13:45:11.240Z,54.80
2019-03-25T13:47:43.928Z,55.00
2019-03-25T13:50:25.132Z,56.20
2019-03-25T13:52:57.999Z,56.30
2019-03-25T13:55:30.996Z,55.50
2019-03-25T13:58:03.894Z,54.90
2019-03-25T14:00:42.523Z,54.20
2019-03-25T14:03:15.980Z,56.90
2019-03-25T14:05:48.979Z,57.50
2019-03-25T14:08:21.809Z,57.50
2019-03-25T14:10:56.151Z,58.80
2019-03-25T14:13:32.558Z,60.90
2019-03-25T14:16:07.885Z,63.00
2019-03-25T14:18:42.670Z,62.80
2019-03-25T14:21:16.158Z,65.70
2019-03-25T14:23:53.422Z,66.50
2019-03-25T14:26:31.450Z,66.90
2019-03-25T14:29:06.923Z,68.00
2019-03-25T14:31:46.417Z,68.10
2019-03-25T14:34:23.451Z,68.60
2019-03-25T14:37:01.942Z,69.00
2019-03-25T14:39:37.413Z,69.60
2019-03-25T14:42:14.522Z,70.60
2019-03-25T14:44:50.220Z,70.20
2019-03-25T14:47:28.139Z,68.70
2019-03-25T14:50:04.907Z,67.80
2019-03-25T14:52:39.678Z,67.20
2019-03-25T14:55:18.251Z,67.10
2019-03-25T14:57:52.992Z,68.10
2019-03-25T15:00:28.042Z,69.20
2019-03-25T15:03:05.330Z,69.70
2019-03-25T15:05:41.977Z,70.20
2019-03-25T15:08:18.850Z,71.50
2019-03-25T15:11:02.176Z,72.80
2019-03-25T15:13:38.173Z,72.90
2019-03-25T15:16:15.471Z,74.40
2019-03-25T15:18:53.584Z,74.10
2019-03-25T15:21:29.837Z,74.70
2019-03-25T15:24:07.130Z,72.40
2019-03-25T15:26:46.280Z,71.10
2019-03-25T15:29:21.996Z,69.70
2019-03-25T15:31:58.588Z,71.60
2019-03-25T15:34:35.536Z,70.70
2019-03-25T15:37:15.977Z,70.40
2019-03-25T15:39:54.107Z,69.80
2019-03-25T15:42:34.933Z,69.70
2019-03-25T15:45:13.806Z,71.30
2019-03-25T15:47:48.470Z,72.20
2019-03-25T15:50:24.732Z,71.90
2019-03-25T15:53:15.518Z,70.10
2019-03-25T15:55:53.524Z,67.20
2019-03-25T15:58:31.066Z,65.50
2019-03-25T16:01:09.513Z,64.20
2019-03-25T16:03:57.696Z,62.90
2019-03-25T16:06:34.065Z,62.10
2019-03-25T16:09:13.680Z,63.50
2019-03-25T16:11:49.219Z,63.10
2019-03-25T16:14:40.321Z,62.90
2019-03-25T16:17:21.409Z,63.30
2019-03-25T16:19:58.323Z,65.70
2019-03-25T16:22:35.445Z,67.40
2019-03-25T16:25:12.631Z,70.40
2019-03-25T16:27:55.671Z,72.80
2019-03-25T16:30:38.131Z,74.50
2019-03-25T16:33:13.289Z,75.40
2019-03-25T16:35:52.217Z,77.20
2019-03-25T16:38:34.898Z,78.80
2019-03-25T16:41:13.473Z,79.80
2019-03-25T16:43:49.712Z,80.40
2019-03-25T16:46:26.610Z,81.30
2019-03-25T16:49:04.037Z,83.00
2019-03-25T16:51:40.570Z,84.30
2019-03-25T16:54:24.743Z,85.50
2019-03-25T16:57:02.902Z,87.30
2019-03-25T16:59:42.758Z,90.10
2019-03-25T17:02:19.799Z,91.00
2019-03-25T17:04:58.325Z,92.60
2019-03-25T17:07:38.244Z,93.40
2019-03-25T17:10:15.488Z,94.10
2019-03-25T17:12:55.649Z,94.50
2019-03-25T17:15:36.318Z,95.60
2019-03-25T17:18:20.000Z,97.00
2019-03-25T17:20:59.139Z,97.40
2019-03-25T17:23:38.957Z,98.80
2019-03-25T17:26:26.329Z,99.90
2019-03-25T17:29:03.460Z,99.90
2019-03-25T17:31:41.365Z,99.90
2019-03-25T17:34:18.359Z,99.90
2019-03-25T17:36:59.544Z,99.90
2019-03-25T17:39:38.433Z,99.90
2019-03-25T17:42:14.406Z,99.90
2019-03-25T17:44:50.539Z,99.90
2019-03-25T17:47:27.399Z,99.90
2019-03-25T17:50:04.233Z,99.90
2019-03-25T17:52:42.920Z,99.90
2019-03-25T17:55:18.360Z,99.90
2019-03-25T17:57:53.741Z,99.90
2019-03-25T18:01:32.879Z,99.90
2019-03-25T18:04:08.047Z,99.90
2019-03-25T18:06:46.039Z,99.90
2019-03-25T18:09:31.765Z,99.90
2019-03-25T18:12:09.818Z,99.90
2019-03-25T18:14:45.336Z,99.90
2019-03-25T18:17:22.987Z,99.90
2019-03-25T18:20:01.119Z,99.90
2019-03-25T18:22:41.761Z,99.90
2019-03-25T18:25:19.031Z,99.90
2019-03-25T18:27:55.405Z,99.90
2019-03-25T18:30:40.354Z,99.90
2019-03-25T18:33:18.435Z,99.90
2019-03-25T18:35:55.374Z,99.90
2019-03-25T18:38:35.447Z,99.90
2019-03-25T18:41:13.563Z,99.90
2019-03-25T18:43:58.149Z,99.90
2019-03-25T18:46:33.524Z,99.90
2019-03-25T18:49:23.658Z,99.90
2019-03-25T18:51:59.625Z,99.90
2019-03-25T18:54:36.847Z,99.90
2019-03-25T18:57:12.353Z,99.90
2019-03-25T18:59:48.551Z,99.90
2019-03-25T19:02:26.552Z,99.90
2019-03-25T19:05:04.527Z,99.90
2019-03-25T19:07:39.437Z,99.90
2019-03-25T19:10:18.930Z,99.90
2019-03-25T19:12:56.037Z,99.90
2019-03-25T19:15:32.092Z,99.90
2019-03-25T19:18:08.760Z,99.90
2019-03-25T19:20:47.597Z,99.90
2019-03-25T19:23:25.446Z,99.90
2019-03-25T19:26:05.683Z,99.90
2019-03-25T19:28:42.188Z,99.90
2019-03-25T19:31:18.727Z,99.90
2019-03-25T19:33:53.054Z,99.90
2019-03-25T19:36:32.947Z,99.90
2019-03-25T19:39:11.180Z,99.90
2019-03-25T19:41:48.777Z,99.90
2019-03-25T19:44:25.365Z,99.90
2019-03-25T19:47:04.359Z,99.90
2019-03-25T19:49:50.243Z,99.90
2019-03-25T19:52:48.634Z,99.90
2019-03-25T19:55:30.262Z,99.90
2019-03-25T19:58:07.695Z,99.90
2019-03-25T20:00:48.459Z,99.90
2019-03-25T20:03:39.600Z,99.90
2019-03-25T20:06:26.462Z,99.90
2019-03-25T20:09:02.590Z,99.90
2019-03-25T20:11:52.589Z,99.90
2019-03-25T20:14:29.379Z,99.90
2019-03-25T20:17:15.541Z,99.90
2019-03-25T20:19:51.848Z,99.90
2019-03-25T20:22:28.180Z,99.90
2019-03-25T20:25:10.422Z,99.90
2019-03-25T20:27:50.070Z,99.90
2019-03-25T20:30:26.339Z,99.90
2019-03-25T20:33:02.864Z,99.90
2019-03-25T20:36:02.906Z,99.90
2019-03-25T20:38:41.707Z,99.90
2019-03-25T20:41:20.936Z,99.90
2019-03-25T20:43:56.310Z,99.90
2019-03-25T20:46:38.257Z,99.90
2019-03-25T20:49:17.824Z,99.90
2019-03-25T20:51:56.056Z,99.90
2019-03-25T20:54:32.200Z,99.90
2019-03-25T20:57:13.205Z,99.90
2019-03-25T20:59:48.141Z,99.90
2019-03-25T21:02:24.028Z,99.90
2019-03-25T21:04:59.224Z,99.90
2019-03-25T21:07:32.713Z,99.90
2019-03-25T21:10:06.510Z,99.90
2019-03-25T21:12:40.893Z,99.90
2019-03-25T21:15:16.176Z,99.90
2019-03-25T21:17:49.933Z,99.90
2019-03-25T21:20:25.631Z,99.90
2019-03-25T21:22:59.277Z,99.90
2019-03-25T21:25:32.480Z,99.90
2019-03-25T21:28:05.769Z,99.90
2019-03-25T21:30:47.853Z,99.90
2019-03-25T21:33:14.459Z,99.90
2019-03-25T21:35:47.641Z,99.90
2019-03-25T21:38:20.876Z,99.90
2019-03-25T21:40:53.819Z,99.90
2019-03-25T21:43:26.593Z,99.90
2019-03-25T21:45:59.411Z,99.90
2019-03-25T21:48:32.360Z,99.90
2019-03-25T21:51:05.209Z,99.90
2019-03-25T21:53:38.330Z,99.90
2019-03-25T21:56:11.603Z,99.90
2019-03-25T21:58:44.466Z,99.90
2019-03-25T22:01:17.030Z,99.90
2019-03-25T22:03:50.114Z,99.90
2019-03-25T22:06:23.230Z,99.90
2019-03-25T22:08:56.502Z,99.90
2019-03-25T22:11:29.184Z,99.90
2019-03-25T22:14:03.108Z,99.90
2019-03-25T22:16:35.772Z,99.90
2019-03-25T22:19:08.830Z,99.90
2019-03-25T22:21:41.341Z,99.90
2019-03-25T22:24:14.164Z,99.90
2019-03-25T22:26:46.859Z,99.90
2019-03-25T22:29:19.612Z,99.90
2019-03-25T22:31:52.329Z,99.90
2019-03-25T22:34:24.970Z,99.90
2019-03-25T22:36:57.842Z,99.90
2019-03-25T22:39:30.807Z,99.90
2019-03-25T22:42:03.785Z,99.90
2019-03-25T22:44:36.444Z,99.90
2019-03-25T22:47:09.188Z,99.90
2019-03-25T22:49:41.926Z,99.90
2019-03-25T22:52:15.361Z,99.90
2019-03-25T22:54:47.956Z,99.90
2019-03-25T22:57:20.604Z,99.90
2019-03-25T22:59:56.937Z,99.90
2019-03-25T23:02:29.531Z,99.90
2019-03-25T23:05:05.782Z,99.90
2019-03-25T23:07:38.527Z,99.90
2019-03-25T23:10:19.530Z,99.90
2019-03-25T23:12:52.188Z,99.90
2019-03-25T23:15:25.278Z,99.90
2019-03-25T23:17:58.342Z,99.90
2019-03-25T23:20:33.939Z,99.90
2019-03-25T23:23:07.367Z,99.90
2019-03-25T23:25:43.567Z,99.90
2019-03-25T23:28:16.067Z,99.90
2019-03-25T23:30:51.383Z,99.90
2019-03-25T23:33:23.924Z,99.90
2019-03-25T23:36:00.522Z,99.90
2019-03-25T23:38:33.670Z,99.90
2019-03-25T23:41:16.636Z,99.90
2019-03-25T23:43:49.169Z,99.90
2019-03-25T23:46:24.969Z,99.90
2019-03-25T23:48:57.500Z,99.90
2019-03-25T23:51:40.707Z,99.90
2019-03-25T23:54:14.764Z,99.90
2019-03-25T23:56:50.606Z,99.90
2019-03-25T23:59:24.840Z,99.90
